Time;durP1;ratioP1;P1;durP2;ratioP2;P2;SDS_P1;SDS_P2;PMS_P1;PMS_P2;Temp;Humidity;BMP_temperature;BMP_pressure;BME280_temperature;BME280_humidity;BME280_pressure;Samples;Min_cycle;Max_cycle;Signal;HPM_P1;HPM_P2
2022/09/24 00:01:33;;;;;;;3.05;2.20;;;;;;;18.24;48.44;101025.97;4823845;29;20050;-71
2022/09/24 00:04:04;;;;;;;2.30;2.05;;;;;;;18.27;48.41;101016.19;4823041;29;20053;-71
2022/09/24 00:06:35;;;;;;;3.42;2.00;;;;;;;18.26;48.90;101015.41;4822846;29;20057;-71
2022/09/24 00:09:03;;;;;;;2.58;2.10;;;;;;;18.22;49.76;101008.88;4823234;29;20055;-71
2022/09/24 00:11:32;;;;;;;2.88;2.35;;;;;;;18.18;49.85;101012.59;4823451;29;20550;-71
2022/09/24 00:14:00;;;;;;;2.88;2.03;;;;;;;18.25;48.84;101005.47;4823111;29;20062;-71
2022/09/24 00:16:32;;;;;;;1.70;1.60;;;;;;;18.20;49.02;101008.38;4823268;29;20053;-71
2022/09/24 00:19:02;;;;;;;2.78;2.40;;;;;;;18.04;49.43;100994.09;4823175;29;20057;-71
2022/09/24 00:21:33;;;;;;;3.35;2.42;;;;;;;18.08;50.17;101000.69;4822724;29;20054;-71
2022/09/24 00:24:09;;;;;;;2.85;2.00;;;;;;;18.21;50.29;101001.69;4823207;29;20065;-71
2022/09/24 00:26:49;;;;;;;2.30;1.90;;;;;;;18.13;50.92;101003.31;4822490;29;20050;-71
2022/09/24 00:29:22;;;;;;;2.33;1.95;;;;;;;18.22;49.59;100991.41;4821979;29;20050;-71
2022/09/24 00:31:53;;;;;;;5.03;2.38;;;;;;;18.17;49.70;100994.38;4822435;29;20426;-71
2022/09/24 00:34:21;;;;;;;2.25;2.03;;;;;;;18.21;49.48;100995.34;4822983;29;20487;-71
2022/09/24 00:36:49;;;;;;;3.63;1.90;;;;;;;18.22;49.40;100997.78;4821544;29;20046;-71
2022/09/24 00:39:17;;;;;;;2.47;1.80;;;;;;;18.26;48.88;100987.69;4831188;29;20050;-71
2022/09/24 00:41:47;;;;;;;2.30;2.05;;;;;;;18.17;49.84;100986.84;4823114;29;20054;-71
2022/09/24 00:44:40;;;;;;;2.70;1.98;;;;;;;18.15;49.78;100988.31;4823010;29;20049;-71
2022/09/24 00:47:26;;;;;;;4.60;2.13;;;;;;;18.09;49.79;100988.47;4817889;29;20050;-70
2022/09/24 00:50:14;;;;;;;1.90;1.65;;;;;;;18.14;49.87;100995.81;4805803;29;20054;-71
2022/09/24 00:53:04;;;;;;;2.33;2.10;;;;;;;18.07;50.26;100998.22;4822635;29;20051;-71
2022/09/24 00:55:34;;;;;;;2.00;1.80;;;;;;;18.07;50.70;100995.44;4805520;29;20046;-71
2022/09/24 00:58:05;;;;;;;2.70;2.13;;;;;;;18.03;51.23;101000.00;4822560;29;20046;-71
2022/09/24 01:00:35;;;;;;;2.75;2.15;;;;;;;18.09;51.59;100991.22;4822805;29;20437;-71
2022/09/24 01:03:10;;;;;;;4.05;2.05;;;;;;;18.08;50.92;100980.50;4803562;29;20050;-70
2022/09/24 01:05:38;;;;;;;2.53;2.10;;;;;;;17.99;51.23;100981.22;4819438;29;20059;-71
2022/09/24 01:08:09;;;;;;;2.45;1.90;;;;;;;18.08;50.52;100991.56;4806080;29;20082;-70
2022/09/24 01:10:49;;;;;;;1.80;1.67;;;;;;;17.96;51.54;100984.66;4822434;29;20050;-71
2022/09/24 01:13:30;;;;;;;3.40;1.85;;;;;;;18.00;51.84;100969.00;4813672;29;20046;-71
2022/09/24 01:16:06;;;;;;;4.03;2.47;;;;;;;17.95;52.26;100971.94;4824385;29;20438;-71
2022/09/24 01:18:42;;;;;;;2.72;1.77;;;;;;;18.00;51.89;100979.28;4826364;29;20404;-71
2022/09/24 01:21:25;;;;;;;3.17;2.17;;;;;;;17.98;51.41;100974.06;4825975;29;20047;-70
2022/09/24 01:24:17;;;;;;;2.08;1.70;;;;;;;17.92;51.99;100967.03;4825716;29;20050;-71
2022/09/24 01:27:00;;;;;;;2.15;1.60;;;;;;;17.90;51.74;100960.19;4815884;29;20050;-71
2022/09/24 01:29:57;;;;;;;5.97;2.47;;;;;;;17.92;51.90;100950.44;4825411;29;20517;-71
2022/09/24 01:32:39;;;;;;;2.97;1.75;;;;;;;17.98;51.71;100949.16;4822925;29;20306;-70
2022/09/24 01:35:14;;;;;;;2.05;1.85;;;;;;;17.97;52.08;100941.97;4825205;29;20039;-71
2022/09/24 01:37:48;;;;;;;1.83;1.73;;;;;;;17.94;52.84;100936.28;4824449;29;20070;-71
2022/09/24 01:40:20;;;;;;;3.95;2.00;;;;;;;17.92;52.09;100933.81;4825736;29;20065;-71
2022/09/24 01:42:51;;;;;;;4.40;2.25;;;;;;;17.93;52.04;100929.91;4825800;29;20051;-71
2022/09/24 01:45:19;;;;;;;2.40;1.92;;;;;;;17.89;53.17;100928.13;4815536;29;20046;-71
2022/09/24 01:47:48;;;;;;;1.90;1.70;;;;;;;17.92;53.02;100933.81;4825670;29;20053;-71
2022/09/24 01:50:18;;;;;;;2.38;2.17;;;;;;;17.88;53.15;100915.41;4825598;29;20050;-71
2022/09/24 01:53:05;;;;;;;3.10;1.92;;;;;;;17.85;53.50;100916.88;4825519;29;20422;-71
2022/09/24 01:55:41;;;;;;;2.00;1.67;;;;;;;17.97;51.87;100916.25;4814734;29;20046;-71
2022/09/24 01:58:18;;;;;;;5.38;2.10;;;;;;;18.06;51.60;100921.81;4825407;29;20061;-71
2022/09/24 02:00:50;;;;;;;3.60;1.92;;;;;;;18.09;51.89;100921.19;4824891;29;20058;-71
2022/09/24 02:03:28;;;;;;;1.70;1.58;;;;;;;17.99;52.22;100917.56;4824587;29;20062;-71
2022/09/24 02:06:02;;;;;;;1.58;1.48;;;;;;;17.82;52.62;100912.78;4824766;29;20054;-71
2022/09/24 02:08:33;;;;;;;;;;;;;;;17.84;51.82;100918.00;4825798;29;20054;-71
2022/09/24 02:11:12;;;;;;;1.80;1.70;;;;;;;17.85;52.00;100917.69;4808992;29;19947;-72
2022/09/24 02:14:03;;;;;;;2.53;1.75;;;;;;;17.89;52.25;100917.84;4823615;29;20061;-71
2022/09/24 02:16:44;;;;;;;2.45;1.73;;;;;;;17.80;52.73;100911.47;4822464;29;20066;-71
2022/09/24 02:19:19;;;;;;;4.53;1.60;;;;;;;17.81;52.81;100905.63;4824938;29;20054;-71
2022/09/24 02:21:50;;;;;;;2.03;1.70;;;;;;;17.92;53.34;100906.13;4824575;29;20062;-71
2022/09/24 02:24:23;;;;;;;1.63;1.52;;;;;;;17.98;53.38;100899.31;4823773;29;20054;-71
2022/09/24 02:26:51;;;;;;;4.65;1.60;;;;;;;17.89;52.95;100906.78;4832413;29;20050;-71
2022/09/24 02:29:19;;;;;;;1.48;1.38;;;;;;;17.80;53.52;100903.19;4822676;29;20058;-71
2022/09/24 02:31:49;;;;;;;2.78;1.60;;;;;;;17.83;53.54;100908.88;4824840;29;20053;-71
2022/09/24 02:34:24;;;;;;;4.70;1.70;;;;;;;17.86;53.05;100907.44;4823936;29;20050;-71
2022/09/24 02:37:01;;;;;;;2.20;1.50;;;;;;;17.90;53.16;100908.44;4824866;29;20401;-71
2022/09/24 02:39:29;;;;;;;1.70;1.58;;;;;;;17.89;53.48;100923.38;4824232;29;20054;-71
2022/09/24 02:41:57;;;;;;;2.97;1.45;;;;;;;17.82;53.93;100920.28;4824764;29;20057;-71
2022/09/24 02:44:25;;;;;;;2.10;1.55;;;;;;;17.88;53.06;100924.53;4820398;29;20055;-71
2022/09/24 02:46:53;;;;;;;1.67;1.40;;;;;;;17.88;52.73;100915.41;4808323;29;20074;-71
2022/09/24 02:49:21;;;;;;;4.28;1.73;;;;;;;17.92;52.61;100925.53;4829923;29;20042;-71
2022/09/24 02:51:49;;;;;;;2.28;1.45;;;;;;;17.85;53.35;100917.69;4837738;29;20043;-71
2022/09/24 02:54:17;;;;;;;3.35;1.90;;;;;;;17.75;54.06;100914.41;4832899;29;20379;-71
2022/09/24 02:56:45;;;;;;;2.20;1.38;;;;;;;17.68;54.49;100896.31;4809872;29;20053;-71
2022/09/24 02:59:13;;;;;;;1.60;1.42;;;;;;;17.75;55.50;100895.03;4824431;29;20050;-71
2022/09/24 03:01:41;;;;;;;1.83;1.50;;;;;;;17.77;54.29;100898.28;4824701;29;20391;-71
2022/09/24 03:04:09;;;;;;;2.55;1.90;;;;;;;17.82;54.00;100900.91;4822991;29;20383;-71
2022/09/24 03:06:37;;;;;;;3.70;2.17;;;;;;;17.82;54.71;100900.91;4824549;29;20051;-71
2022/09/24 03:09:05;;;;;;;1.83;1.73;;;;;;;17.72;55.94;100894.53;4824267;29;20049;-71
2022/09/24 03:11:34;;;;;;;1.83;1.40;;;;;;;17.72;55.17;100890.94;4824408;29;20490;-71
2022/09/24 03:14:02;;;;;;;3.55;1.70;;;;;;;17.72;55.16;100880.69;4822976;29;20498;-71
2022/09/24 03:16:30;;;;;;;2.22;1.77;;;;;;;17.75;56.08;100879.25;4824372;29;20060;-71
2022/09/24 03:18:58;;;;;;;1.70;1.55;;;;;;;17.74;55.10;100872.06;4819902;29;20051;-71
2022/09/24 03:21:26;;;;;;;2.45;1.77;;;;;;;17.72;55.16;100866.84;4823603;29;20046;-71
2022/09/24 03:23:54;;;;;;;1.73;1.38;;;;;;;17.62;55.69;100849.72;4824348;29;20061;-71
2022/09/24 03:26:22;;;;;;;1.42;1.33;;;;;;;17.53;56.04;100858.81;4824047;29;20406;-71
2022/09/24 03:28:49;;;;;;;1.70;1.60;;;;;;;17.65;55.69;100857.38;4819424;29;20054;-71
2022/09/24 03:31:18;;;;;;;4.22;1.45;;;;;;;17.53;55.94;100861.59;4822130;29;20490;-71
2022/09/24 03:33:48;;;;;;;3.40;2.00;;;;;;;17.46;56.41;100850.97;4823801;29;20054;-71
2022/09/24 03:36:22;;;;;;;5.45;1.83;;;;;;;17.48;57.42;100858.97;4822909;29;20061;-71
2022/09/24 03:38:55;;;;;;;2.10;1.70;;;;;;;17.52;56.85;100848.06;4813058;29;20506;-71
2022/09/24 03:41:26;;;;;;;1.50;1.10;;;;;;;17.53;58.15;100839.44;4823443;29;20051;-71
2022/09/24 03:43:54;;;;;;;2.60;1.70;;;;;;;17.50;57.03;100851.16;4826900;29;20514;-71
2022/09/24 03:46:28;;;;;;;1.85;1.65;;;;;;;17.62;55.99;100853.31;4823755;29;20490;-71
2022/09/24 03:48:59;;;;;;;3.05;1.40;;;;;;;17.58;56.18;100846.78;4820080;29;20066;-70
2022/09/24 03:51:27;;;;;;;2.53;1.58;;;;;;;17.64;56.30;100848.25;4801744;29;20066;-71
2022/09/24 03:53:55;;;;;;;2.10;1.27;;;;;;;17.60;56.55;100855.59;4823280;29;20057;-71
2022/09/24 03:56:23;;;;;;;2.08;1.77;;;;;;;17.59;56.96;100852.00;4821886;29;20049;-71
2022/09/24 03:58:51;;;;;;;1.42;1.33;;;;;;;17.62;56.73;100847.78;4821523;29;20055;-71
2022/09/24 04:01:19;;;;;;;3.83;1.50;;;;;;;17.49;57.07;100845.97;4823744;29;20049;-71
2022/09/24 04:03:49;;;;;;;2.90;2.08;;;;;;;17.62;56.28;100852.47;4823012;29;20046;-71
2022/09/24 04:06:17;;;;;;;1.30;1.20;;;;;;;17.56;56.84;100838.78;4823738;29;20403;-71
2022/09/24 04:08:52;;;;;;;1.75;1.65;;;;;;;17.53;56.89;100836.69;4822557;29;20054;-71
2022/09/24 04:11:20;;;;;;;2.25;1.45;;;;;;;17.44;56.93;100842.19;4823555;29;20054;-71
2022/09/24 04:13:49;;;;;;;1.65;1.40;;;;;;;17.38;56.60;100843.47;4823455;29;20038;-71
2022/09/24 04:16:16;;;;;;;2.95;1.58;;;;;;;17.40;56.35;100843.97;4823643;29;20049;-71
2022/09/24 04:18:47;;;;;;;2.67;1.65;;;;;;;17.44;56.82;100831.13;4820572;29;20061;-71
2022/09/24 04:21:15;;;;;;;1.77;1.60;;;;;;;17.50;56.53;100839.28;4805852;29;20612;-71
2022/09/24 04:23:43;;;;;;;1.63;1.40;;;;;;;17.54;58.24;100837.50;4821642;29;20050;-71
2022/09/24 04:26:11;;;;;;;2.13;1.50;;;;;;;17.60;55.97;100837.03;4822659;29;20051;-71
2022/09/24 04:28:39;;;;;;;4.07;1.48;;;;;;;17.56;56.67;100832.47;4822276;29;20051;-71
2022/09/24 04:31:07;;;;;;;1.92;1.80;;;;;;;17.53;56.19;100831.16;4823195;29;20053;-71
2022/09/24 04:33:35;;;;;;;2.80;1.45;;;;;;;17.53;56.45;100833.09;4823266;29;20402;-71
2022/09/24 04:36:03;;;;;;;2.00;1.80;;;;;;;17.51;57.07;100830.66;4806314;29;20046;-71
2022/09/24 04:38:31;;;;;;;1.92;1.50;;;;;;;17.56;55.95;100826.94;4822359;29;20050;-71
2022/09/24 04:41:08;;;;;;;1.58;1.45;;;;;;;17.70;54.77;100826.81;4836418;29;20047;-71
2022/09/24 04:43:37;;;;;;;2.40;1.48;;;;;;;17.60;55.18;100825.16;4824253;29;20066;-71
2022/09/24 04:46:05;;;;;;;1.60;1.50;;;;;;;17.65;55.96;100836.06;4803934;29;20046;-71
2022/09/24 04:48:37;;;;;;;2.85;1.25;;;;;;;17.72;54.90;100839.19;4815919;29;20063;-71
2022/09/24 04:51:06;;;;;;;1.85;1.48;;;;;;;17.66;56.20;100840.47;4821555;29;20054;-71
2022/09/24 04:53:36;;;;;;;3.47;1.85;;;;;;;17.78;55.25;100850.09;4802691;29;20062;-71
2022/09/24 04:56:04;;;;;;;1.40;1.30;;;;;;;17.82;54.39;100834.47;4800475;29;20046;-71
2022/09/24 04:58:32;;;;;;;3.40;1.60;;;;;;;17.73;55.96;100835.28;4803756;29;20050;-70
2022/09/24 05:01:02;;;;;;;1.58;1.30;;;;;;;17.79;55.69;100829.59;4800658;29;20047;-71
2022/09/24 05:03:31;;;;;;;1.50;1.40;;;;;;;17.78;55.95;100834.28;4808630;29;20055;-81
2022/09/24 05:06:00;;;;;;;2.85;1.65;;;;;;;17.81;55.75;100835.59;4817052;29;20041;-80
2022/09/24 05:08:28;;;;;;;1.63;1.52;;;;;;;17.85;56.23;100844.91;4784444;29;20396;-72
2022/09/24 05:10:56;;;;;;;1.27;1.17;;;;;;;17.86;55.76;100841.78;4786727;29;20054;-72
2022/09/24 05:13:24;;;;;;;1.75;1.63;;;;;;;17.81;55.75;100843.91;4790857;29;20070;-72
2022/09/24 05:15:52;;;;;;;1.52;1.42;;;;;;;17.76;55.33;100847.66;4806313;29;20043;-72
2022/09/24 05:18:20;;;;;;;1.88;1.77;;;;;;;17.77;55.15;100843.75;4813304;29;20061;-71
2022/09/24 05:20:48;;;;;;;5.70;1.38;;;;;;;17.80;55.29;100842.28;4804193;29;20527;-72
2022/09/24 05:23:16;;;;;;;2.13;1.63;;;;;;;17.82;55.61;100851.06;4787597;29;20047;-72
2022/09/24 05:28:34;;;;;;;2.30;1.50;;;;;;;17.88;56.00;100849.78;4804264;29;20430;-72
2022/09/24 05:31:02;;;;;;;2.42;1.63;;;;;;;17.93;54.79;100848.81;4809388;29;20383;-72
2022/09/24 05:33:30;;;;;;;1.55;1.42;;;;;;;17.95;54.86;100835.47;4808987;29;20062;-72
2022/09/24 05:35:58;;;;;;;2.10;1.45;;;;;;;18.10;54.40;100839.75;4797803;29;20067;-72
2022/09/24 05:38:25;;;;;;;5.90;1.88;;;;;;;18.07;55.42;100840.38;4810032;29;20062;-71
2022/09/24 05:40:53;;;;;;;2.92;1.63;;;;;;;18.08;55.48;100836.50;4810383;29;20050;-72
2022/09/24 05:43:21;;;;;;;2.22;1.60;;;;;;;18.07;55.91;100832.06;4808245;29;20045;-71
2022/09/24 05:45:49;;;;;;;2.25;1.60;;;;;;;18.16;54.57;100837.63;4821078;29;20414;-72
2022/09/24 05:48:17;;;;;;;1.45;1.30;;;;;;;18.25;54.59;100833.72;4806723;29;20039;-72
2022/09/24 05:50:45;;;;;;;1.85;1.65;;;;;;;18.29;54.52;100838.59;4819388;29;20054;-72
2022/09/24 05:53:13;;;;;;;2.83;1.50;;;;;;;18.38;54.55;100850.50;4820979;29;20418;-72
2022/09/24 05:55:45;;;;;;;1.75;1.65;;;;;;;18.44;54.77;100846.44;4823811;29;20405;-71
2022/09/24 05:58:13;;;;;;;2.85;1.83;;;;;;;18.50;54.36;100852.59;4821662;29;20499;-71
2022/09/24 06:00:41;;;;;;;3.88;1.75;;;;;;;18.40;54.00;100848.22;4822112;29;20379;-71
2022/09/24 06:03:14;;;;;;;1.55;1.45;;;;;;;18.48;54.28;100849.34;4808620;29;20050;-72
2022/09/24 06:05:45;;;;;;;2.40;1.58;;;;;;;18.66;53.95;100841.81;4823778;29;20049;-72
2022/09/24 06:08:14;;;;;;;4.10;1.80;;;;;;;18.60;54.91;100843.13;4825402;29;20054;-71
2022/09/24 06:10:46;;;;;;;1.83;1.52;;;;;;;18.85;53.40;100840.63;4825001;29;20054;-71
2022/09/24 06:13:19;;;;;;;1.85;1.50;;;;;;;19.04;53.70;100849.44;4825149;29;20043;-71
2022/09/24 06:15:47;;;;;;;1.58;1.40;;;;;;;19.11;52.83;100848.09;4824950;29;20416;-71
2022/09/24 06:18:15;;;;;;;2.58;1.70;;;;;;;19.13;53.33;100843.84;4825042;29;20065;-71
2022/09/24 06:20:43;;;;;;;3.17;2.08;;;;;;;19.21;52.01;100839.38;4824900;29;20379;-71
2022/09/24 06:23:11;;;;;;;5.53;1.70;;;;;;;19.33;52.23;100855.34;4825013;29;20046;-71
2022/09/24 06:25:39;;;;;;;1.95;1.75;;;;;;;19.33;52.69;100850.63;4823670;29;20062;-71
2022/09/24 06:28:07;;;;;;;1.73;1.40;;;;;;;19.47;53.44;100855.13;4824593;29;20050;-72
2022/09/24 06:30:37;;;;;;;2.10;1.60;;;;;;;19.34;52.13;100854.19;4824780;29;20497;-71
2022/09/24 06:33:11;;;;;;;5.20;1.63;;;;;;;19.42;51.85;100858.91;4824923;29;20055;-71
2022/09/24 06:35:41;;;;;;;1.60;1.50;;;;;;;19.55;51.36;100857.03;4808474;29;20061;-71
2022/09/24 06:38:14;;;;;;;1.73;1.30;;;;;;;19.70;50.72;100857.63;4824763;29;20045;-79
2022/09/24 06:40:44;;;;;;;3.50;1.83;;;;;;;19.62;51.42;100856.50;4825339;29;20414;-78
2022/09/24 06:43:13;;;;;;;3.95;1.38;;;;;;;19.68;51.52;100862.66;4824559;29;20055;-78
2022/09/24 06:45:44;;;;;;;1.52;1.33;;;;;;;19.68;52.57;100859.91;4824261;29;20054;-78
2022/09/24 06:48:13;;;;;;;2.17;1.60;;;;;;;19.90;51.81;100855.19;4824947;29;20054;-78
2022/09/24 06:50:43;;;;;;;2.13;1.58;;;;;;;19.86;50.31;100864.19;4808540;29;20050;-78
2022/09/24 06:53:11;;;;;;;5.70;2.00;;;;;;;19.97;51.80;100872.16;4824668;29;20514;-78
2022/09/24 06:55:40;;;;;;;2.38;1.98;;;;;;;20.03;51.47;100870.81;4808642;29;20058;-77
2022/09/24 06:58:11;;;;;;;1.20;1.10;;;;;;;20.22;50.09;100875.09;4823982;29;20788;-79
2022/09/24 07:00:40;;;;;;;3.50;1.85;;;;;;;20.44;49.58;100890.63;4822165;29;20055;-79
2022/09/24 07:03:14;;;;;;;1.55;1.25;;;;;;;20.54;49.36;100873.50;4824119;29;20046;-80
2022/09/24 07:05:42;;;;;;;4.05;1.85;;;;;;;20.56;49.06;100881.50;4836643;29;20498;-79
2022/09/24 07:08:10;;;;;;;4.97;1.50;;;;;;;20.52;49.21;100888.91;4827186;29;20058;-80
2022/09/24 07:10:45;;;;;;;3.25;1.50;;;;;;;20.47;48.73;100891.91;4823633;29;20529;-80
2022/09/24 07:13:14;;;;;;;1.33;1.20;;;;;;;20.62;48.17;100888.47;4823826;29;20055;-80
2022/09/24 07:15:43;;;;;;;7.03;1.67;;;;;;;20.61;48.65;100886.03;4824770;29;20054;-79
2022/09/24 07:18:11;;;;;;;1.17;1.15;;;;;;;20.54;47.88;100883.81;4824652;29;20073;-79
2022/09/24 07:20:39;;;;;;;1.27;1.05;;;;;;;20.65;47.81;100895.34;4824129;29;20058;-79
2022/09/24 07:23:09;;;;;;;3.63;1.33;;;;;;;20.72;47.85;100890.03;4823179;29;20043;-79
2022/09/24 07:25:37;;;;;;;8.30;1.83;;;;;;;20.63;47.77;100884.53;4822593;29;20057;-78
2022/09/24 07:28:10;;;;;;;5.20;1.23;;;;;;;20.61;47.87;100897.97;4824147;29;20505;-79
2022/09/24 07:30:39;;;;;;;2.35;1.42;;;;;;;20.67;47.73;100893.84;4823468;29;20134;-79
2022/09/24 07:33:07;;;;;;;1.45;1.25;;;;;;;20.68;48.42;100877.97;4824298;29;20517;-79
2022/09/24 07:35:39;;;;;;;1.25;1.15;;;;;;;20.57;48.54;100888.69;4807105;29;20042;-79
2022/09/24 07:38:13;;;;;;;3.05;1.20;;;;;;;20.62;48.14;100896.03;4823839;29;20490;-79
2022/09/24 07:40:41;;;;;;;3.38;1.73;;;;;;;20.75;48.04;100896.88;4834574;29;20065;-80
2022/09/24 07:43:12;;;;;;;1.52;1.42;;;;;;;20.76;48.08;100895.72;4822030;29;20062;-79
2022/09/24 07:45:41;;;;;;;1.45;1.35;;;;;;;20.78;48.51;100905.34;4822492;29;20055;-80
2022/09/24 07:48:10;;;;;;;2.25;1.40;;;;;;;20.72;48.45;100901.16;4825482;29;20059;-79
2022/09/24 07:50:39;;;;;;;1.67;1.58;;;;;;;20.57;48.80;100902.59;4800175;29;20053;-79
2022/09/24 07:53:11;;;;;;;1.38;1.27;;;;;;;20.74;49.47;100898.03;4822146;29;20159;-79
2022/09/24 07:55:39;;;;;;;2.63;1.25;;;;;;;20.91;48.58;100900.66;4827212;29;20061;-79
2022/09/24 07:58:12;;;;;;;4.32;1.30;;;;;;;20.91;49.13;100905.41;4829780;29;20047;-79
2022/09/24 08:00:41;;;;;;;1.42;1.33;;;;;;;20.88;48.90;100909.69;4823015;29;20065;-79
2022/09/24 08:03:09;;;;;;;1.58;1.40;;;;;;;20.80;47.71;100905.81;4831256;29;20073;-79
2022/09/24 08:05:46;;;;;;;1.63;1.08;;;;;;;20.82;48.78;100899.91;4823779;29;20061;-80
2022/09/24 08:08:15;;;;;;;1.20;1.10;;;;;;;20.96;48.32;100910.75;4822541;29;20053;-80
2022/09/24 08:10:44;;;;;;;1.63;1.20;;;;;;;20.98;48.44;100904.84;4820480;29;20118;-79
2022/09/24 08:13:12;;;;;;;2.00;1.60;;;;;;;20.87;49.07;100908.06;4820969;29;20497;-79
2022/09/24 08:15:40;;;;;;;1.85;1.38;;;;;;;20.89;48.58;100904.94;4822533;29;20063;-80
2022/09/24 08:18:08;;;;;;;6.07;1.35;;;;;;;20.92;48.75;100909.84;4821664;29;20050;-79
2022/09/24 08:20:37;;;;;;;2.38;1.65;;;;;;;20.96;49.16;100909.97;4823050;29;20410;-79
2022/09/24 08:23:09;;;;;;;2.08;1.38;;;;;;;21.00;49.19;100908.91;4823315;29;20046;-79
2022/09/24 08:25:37;;;;;;;1.77;1.25;;;;;;;20.90;49.53;100904.63;4819715;29;20049;-77
2022/09/24 08:28:07;;;;;;;4.57;1.75;;;;;;;21.07;48.78;100905.59;4820550;29;20050;-77
2022/09/24 08:30:35;;;;;;;1.58;1.50;;;;;;;20.88;49.85;100897.75;4821760;29;20073;-77
2022/09/24 08:33:05;;;;;;;3.17;1.60;;;;;;;20.91;49.21;100909.00;4829311;29;20465;-77
2022/09/24 08:35:34;;;;;;;1.40;1.20;;;;;;;20.73;49.83;100902.75;4821812;29;20057;-82
2022/09/24 08:38:02;;;;;;;1.35;1.25;;;;;;;20.80;49.81;100902.22;4825017;29;20081;-81
2022/09/24 08:40:36;;;;;;;3.38;1.30;;;;;;;20.92;49.44;100899.50;4819776;29;20050;-81
2022/09/24 08:43:16;;;;;;;1.67;1.58;;;;;;;21.04;49.48;100906.25;4820084;29;20054;-81
2022/09/24 08:48:50;;;;;;;2.42;1.63;;;;;;;21.18;49.08;100903.16;4821143;29;20065;-81
2022/09/24 08:51:25;;;;;;;4.15;1.83;;;;;;;20.92;48.80;100902.28;4825191;29;20054;-81
2022/09/24 08:54:03;;;;;;;2.83;1.20;;;;;;;21.10;48.49;100906.88;4824903;29;20050;-81
2022/09/24 08:56:35;;;;;;;1.35;1.25;;;;;;;21.07;48.33;100898.03;4822614;29;20057;-82
2022/09/24 08:59:29;;;;;;;1.58;1.45;;;;;;;21.13;49.21;100909.78;4816178;29;20407;-82
2022/09/24 09:02:21;;;;;;;1.60;1.50;;;;;;;21.20;48.56;100904.44;4822261;29;20050;-81
2022/09/24 09:05:17;;;;;;;2.53;1.83;;;;;;;21.04;49.13;100906.25;4822286;29;20396;-81
2022/09/24 09:08:01;;;;;;;2.97;1.58;;;;;;;21.18;49.27;100912.34;4805707;29;20050;-81
2022/09/24 09:10:43;;;;;;;6.82;1.42;;;;;;;20.99;49.39;100907.31;4820516;29;20065;-81
2022/09/24 09:13:29;;;;;;;5.80;1.70;;;;;;;21.14;49.94;100905.81;4826545;29;20058;-81
2022/09/24 09:16:05;;;;;;;2.78;1.65;;;;;;;21.03;49.88;100899.91;4815766;29;20062;-81
2022/09/24 09:18:40;;;;;;;3.70;1.60;;;;;;;21.07;49.32;100900.81;4820548;29;20066;-80
2022/09/24 09:21:20;;;;;;;1.85;1.38;;;;;;;21.25;49.09;100914.53;4822516;29;20049;-80
2022/09/24 09:23:50;;;;;;;2.60;1.90;;;;;;;21.33;49.65;100907.25;4819976;29;20042;-81
2022/09/24 09:26:19;;;;;;;2.95;1.40;;;;;;;21.27;49.32;100911.41;4813093;29;20061;-82
2022/09/24 09:28:54;;;;;;;3.88;1.55;;;;;;;21.20;49.81;100915.59;4805647;29;20406;-80
2022/09/24 09:31:28;;;;;;;4.38;1.58;;;;;;;21.01;49.58;100912.53;4830905;29;20494;-80
2022/09/24 09:34:30;;;;;;;2.03;1.50;;;;;;;21.06;50.32;100928.97;4821911;29;20043;-80
2022/09/24 09:37:03;;;;;;;3.10;1.75;;;;;;;21.13;49.73;100920.91;4813510;29;20058;-81
2022/09/24 09:39:44;;;;;;;3.00;1.75;;;;;;;21.00;50.27;100910.88;4823315;29;20061;-80
2022/09/24 09:42:27;;;;;;;2.28;1.45;;;;;;;20.99;50.35;100914.81;4819176;29;20047;-81
2022/09/24 09:44:55;;;;;;;1.58;1.48;;;;;;;20.99;50.30;100910.09;4828387;29;20047;-81
2022/09/24 09:47:48;;;;;;;5.18;1.60;;;;;;;21.03;49.65;100915.78;4826634;29;20050;-81
2022/09/24 09:50:28;;;;;;;5.50;1.60;;;;;;;20.96;49.57;100909.97;4825155;29;20061;-81
2022/09/24 09:52:56;;;;;;;6.70;1.80;;;;;;;21.02;49.78;100914.16;4823387;29;20049;-80
2022/09/24 09:55:25;;;;;;;1.90;1.80;;;;;;;20.95;50.58;100911.91;4827803;29;20053;-80
2022/09/24 09:58:14;;;;;;;6.50;1.65;;;;;;;20.98;50.52;100910.41;4822816;29;20034;-80
2022/09/24 10:00:47;;;;;;;2.05;1.67;;;;;;;20.90;50.65;100907.38;4822943;29;20406;-81
2022/09/24 10:03:26;;;;;;;2.75;2.25;;;;;;;21.03;49.80;100907.44;4825030;29;20054;-81
2022/09/24 10:05:58;;;;;;;4.10;1.50;;;;;;;20.91;50.06;100897.88;4825388;29;20418;-80
2022/09/24 10:08:26;;;;;;;2.95;1.65;;;;;;;21.00;49.96;100899.75;4820610;29;20062;-80
2022/09/24 10:11:00;;;;;;;4.03;1.63;;;;;;;21.03;49.51;100894.34;4822103;29;20061;-80
2022/09/24 10:13:32;;;;;;;1.88;1.67;;;;;;;21.02;49.17;100906.59;4821425;29;20055;-80
2022/09/24 10:16:02;;;;;;;8.63;2.33;;;;;;;21.01;49.55;100904.19;4805829;29;20058;-81
2022/09/24 10:18:36;;;;;;;8.23;2.13;;;;;;;20.90;49.72;100910.16;4819634;29;20062;-81
2022/09/24 10:21:10;;;;;;;3.95;1.70;;;;;;;20.91;50.04;100906.22;4823233;29;20062;-81
2022/09/24 10:23:40;;;;;;;;;;;;;;;20.90;49.25;100901.00;4822081;29;20069;-81
2022/09/24 10:26:09;;;;;;;2.15;1.50;;;;;;;20.99;48.90;100898.13;4822971;29;20694;-81
2022/09/24 10:31:41;;;;;;;3.38;2.15;;;;;;;21.00;49.40;100899.75;4826260;29;20069;-80
2022/09/24 10:34:27;;;;;;;2.17;1.80;;;;;;;21.07;48.97;100897.25;4806446;29;20050;-80
2022/09/24 10:37:12;;;;;;;1.85;1.20;;;;;;;21.01;48.93;100901.41;4823923;29;20043;-81
2022/09/24 10:39:40;;;;;;;3.35;2.13;;;;;;;20.87;49.14;100894.16;4821233;29;20422;-80
2022/09/24 10:42:26;;;;;;;1.73;1.40;;;;;;;21.02;49.14;100889.09;4820121;29;20549;-82
2022/09/24 10:44:55;;;;;;;1.80;1.70;;;;;;;20.94;48.72;100893.59;4828484;29;20378;-80
2022/09/24 10:47:30;;;;;;;1.38;1.27;;;;;;;21.13;48.14;100897.81;4820753;29;20057;-80
2022/09/24 10:50:24;;;;;;;1.67;1.45;;;;;;;21.13;48.42;100895.88;4824972;29;20053;-81
2022/09/24 10:52:59;;;;;;;1.23;1.13;;;;;;;21.17;47.63;100887.63;4820932;29;20063;-81
2022/09/24 10:55:59;;;;;;;1.92;1.63;;;;;;;21.12;47.78;100885.88;4824936;29;20485;-81
2022/09/24 10:58:39;;;;;;;2.22;1.77;;;;;;;21.09;48.36;100886.56;4818218;29;20065;-82
2022/09/24 11:01:25;;;;;;;2.20;1.70;;;;;;;21.16;48.16;100891.56;4823231;29;20054;-81
2022/09/24 11:04:19;;;;;;;4.65;1.60;;;;;;;21.11;47.77;100887.03;4806839;29;20532;-82
2022/09/24 11:07:08;;;;;;;4.77;1.83;;;;;;;20.94;48.76;100888.03;4823981;29;20050;-81
2022/09/24 11:09:45;;;;;;;3.58;1.48;;;;;;;21.15;48.54;100887.16;4813328;29;20046;-81
2022/09/24 11:12:45;;;;;;;1.30;1.20;;;;;;;21.21;47.80;100877.41;4825957;29;20481;-80
2022/09/24 11:15:50;;;;;;;5.75;1.65;;;;;;;21.26;47.60;100881.97;4822595;29;20054;-81
2022/09/24 11:18:44;;;;;;;2.00;1.70;;;;;;;21.25;47.91;100880.34;4817308;29;20486;-81
2022/09/24 11:21:37;;;;;;;2.53;1.60;;;;;;;21.16;47.47;100874.88;4819066;29;20297;-80
2022/09/24 11:24:14;;;;;;;3.90;1.75;;;;;;;21.30;48.05;100874.53;4800461;29;20826;-80
2022/09/24 11:27:03;;;;;;;2.53;1.48;;;;;;;21.37;48.03;100872.00;4819056;29;20065;-80
2022/09/24 11:29:37;;;;;;;2.47;1.95;;;;;;;21.39;47.65;100861.31;4820888;29;20046;-80
2022/09/24 11:32:05;;;;;;;2.70;1.85;;;;;;;21.53;47.55;100865.72;4819584;29;20055;-81
2022/09/24 11:34:57;;;;;;;4.25;2.10;;;;;;;21.61;47.60;100875.94;4820734;29;20065;-81
2022/09/24 11:37:28;;;;;;;4.40;2.08;;;;;;;21.45;47.55;100871.06;4815364;29;20054;-81
2022/09/24 11:40:18;;;;;;;3.08;2.25;;;;;;;21.57;47.04;100870.28;4820685;29;20050;-81
2022/09/24 11:43:08;;;;;;;4.20;2.00;;;;;;;21.58;47.14;100869.09;4817561;29;20510;-81
2022/09/24 11:45:50;;;;;;;2.45;1.83;;;;;;;21.48;47.34;100869.56;4822259;29;20054;-81
2022/09/24 11:48:42;;;;;;;4.32;1.80;;;;;;;21.46;47.67;100867.13;4819573;29;20057;-80
2022/09/24 11:51:52;;;;;;;2.50;2.05;;;;;;;21.38;48.25;100864.44;4818687;29;20050;-80
2022/09/24 11:54:46;;;;;;;3.20;2.05;;;;;;;21.42;47.58;100873.75;4780105;29;20073;-80
2022/09/24 11:57:28;;;;;;;1.80;1.70;;;;;;;21.46;48.39;100881.03;4819514;29;20565;-81
2022/09/24 12:00:18;;;;;;;2.00;1.80;;;;;;;21.41;48.69;100884.03;4820662;29;20057;-81
2022/09/24 12:03:09;;;;;;;5.40;2.10;;;;;;;21.43;49.68;100878.97;4819815;29;20054;-80
2022/09/24 12:06:06;;;;;;;2.85;2.03;;;;;;;21.39;50.27;100858.53;4815904;29;20398;-81